Terminal Aerodrome Forecast
Issued by NWS Wichita, KS

Home | Current Version | Previous Version | Text Only | Print | Product List | Glossary Off
Versions: 1 2 3 4 5 6 7 8 9 10 11 12 13 14 15 16

893
FTUS43 KICT 192320
TAFICT
TAF
KICT 192320Z 2000/2024 17012KT P6SM OVC025
      TEMPO 2004/2007 4SM -TSRA OVC006CB
     FM200700 17010KT 4SM -SHRA BR VCTS OVC010CB
     FM201500 19010KT P6SM SCT015=

USA.gov is the U.S. government's official web portal to all federal, state and local government web resources and services.